Airfield :
LOGIN :

Register | Disclaimer

   EN    FR    IT 

 










Legend :    VFR   Marginal VFR   IFR   Intensive IFR   Very Intensive IFR
Visi :
Ceiling :
>= 8 km
>= 3000ft
5 to 8 km
1000 to 3000 ft
1500m to 5 km
500 to 1000 ft
800 to 1500m
200 to 500 ft
< 800m
< 200 ft
Symbols :   Thunderstorms  Fog  Heavy snow  Heavy precipitations  Wind > 20 kt
SIGMETs :     Misc.  Thunderstorms  Icing  Turbulence  Mountain Waves  Volcanic Ashes







- Airport Elevation : 80 ft
- IATA code : LPL
- Download approach charts


EGGP - Liverpool John Lennon

CURRENT METAR :
  • 160450Z 14007KT 100V170 5000 -DZ BR OVC004 11/09 Q1013

EXPIRED METARs :
  • 160420Z 15006KT 6000 OVC004 11/09 Q1013
  • 160350Z 16006KT 7000 OVC005 10/09 Q1014
  • 160320Z 15007KT 110V190 9000 OVC005 11/09 Q1014
  • 160250Z AUTO 14006KT 110V190 9999 OVC005/// 11/10 Q1013

TAF AMD TAF EGGP
Valid from the 16 at 03:00 until the 17 at 00:00 UTC


160308Z 1603/1624 10003KT 9999 OVC005
BECMG 1603/1606 3000 BR OVC002
PROB30 1605/1607 0300 FG OVC000
BECMG 1607/1610 9999 NSW SCT007
BECMG 1610/1613 19010KT
PROB30
TEMPO 1613/1617 CAVOK
PROB40
TEMPO 1620/1624 8000 -RA BKN014
ATIS : +44 151 907 2000 (option 5 or ext 5150)
Met : +44 871 750 5150
No reported NOTAMs for that airfield.



MET'MAP, your aeronautical weather chart ! - Copyright ORBIFLY December 2007 - Disclaimer

ORBIFLY MET'MAP TEAM :

Programming & Development : Alexandra Zaïnal
Concept & Development : Baudouin d'Aumeries
Co-Development & Prog : Marc-Olivier Méhu
Technical & hardware support : Manuel Goepfert

Contact : metmap@orbifly.com




SOURCES & CREDITS :

   NOAA